sensor_id;sensor_type;location;lat;lon;timestamp;P1;durP1;ratioP1;P2;durP2;ratioP2
69822;SDS011;57119;52.516;13.508;2023-10-19T00:01:07;17.35;;;8.32;;
69822;SDS011;57119;52.516;13.508;2023-10-19T00:03:35;20.90;;;9.40;;
69822;SDS011;57119;52.516;13.508;2023-10-19T00:06:00;20.63;;;9.23;;
69822;SDS011;57119;52.516;13.508;2023-10-19T00:08:26;17.43;;;9.03;;
69822;SDS011;57119;52.516;13.508;2023-10-19T00:11:01;22.48;;;8.95;;
69822;SDS011;57119;52.516;13.508;2023-10-19T00:13:29;19.77;;;9.30;;
69822;SDS011;57119;52.516;13.508;2023-10-19T00:15:55;20.60;;;8.70;;
69822;SDS011;57119;52.516;13.508;2023-10-19T00:18:23;19.20;;;9.70;;
69822;SDS011;57119;52.516;13.508;2023-10-19T00:20:52;20.02;;;10.13;;
69822;SDS011;57119;52.516;13.508;2023-10-19T00:23:24;18.05;;;8.95;;
69822;SDS011;57119;52.516;13.508;2023-10-19T00:25:54;21.93;;;9.83;;
69822;SDS011;57119;52.516;13.508;2023-10-19T00:28:20;18.98;;;9.25;;
69822;SDS011;57119;52.516;13.508;2023-10-19T00:30:47;20.60;;;9.05;;
69822;SDS011;57119;52.516;13.508;2023-10-19T00:33:14;21.58;;;9.80;;
69822;SDS011;57119;52.516;13.508;2023-10-19T00:35:45;20.48;;;9.18;;
69822;SDS011;57119;52.516;13.508;2023-10-19T00:38:22;19.20;;;9.07;;
69822;SDS011;57119;52.516;13.508;2023-10-19T00:41:00;19.92;;;10.50;;
69822;SDS011;57119;52.516;13.508;2023-10-19T00:43:35;20.73;;;10.48;;
69822;SDS011;57119;52.516;13.508;2023-10-19T00:46:07;20.70;;;9.50;;
69822;SDS011;57119;52.516;13.508;2023-10-19T00:49:04;22.83;;;9.52;;
69822;SDS011;57119;52.516;13.508;2023-10-19T00:51:33;19.57;;;10.13;;
69822;SDS011;57119;52.516;13.508;2023-10-19T00:54:27;19.80;;;9.52;;
69822;SDS011;57119;52.516;13.508;2023-10-19T00:57:00;20.73;;;9.70;;
69822;SDS011;57119;52.516;13.508;2023-10-19T00:59:36;23.25;;;10.70;;
69822;SDS011;57119;52.516;13.508;2023-10-19T01:02:15;22.58;;;10.15;;
69822;SDS011;57119;52.516;13.508;2023-10-19T01:04:54;19.67;;;10.07;;
69822;SDS011;57119;52.516;13.508;2023-10-19T01:07:30;22.55;;;10.00;;
69822;SDS011;57119;52.516;13.508;2023-10-19T01:10:00;23.00;;;9.88;;
69822;SDS011;57119;52.516;13.508;2023-10-19T01:12:33;21.58;;;9.52;;
69822;SDS011;57119;52.516;13.508;2023-10-19T01:17:49;22.57;;;10.67;;
69822;SDS011;57119;52.516;13.508;2023-10-19T01:20:23;24.00;;;10.85;;
69822;SDS011;57119;52.516;13.508;2023-10-19T01:22:56;22.15;;;10.25;;
69822;SDS011;57119;52.516;13.508;2023-10-19T01:25:33;23.98;;;11.60;;
69822;SDS011;57119;52.516;13.508;2023-10-19T01:28:31;21.15;;;10.52;;
69822;SDS011;57119;52.516;13.508;2023-10-19T01:31:23;18.13;;;9.60;;
69822;SDS011;57119;52.516;13.508;2023-10-19T01:33:54;21.65;;;9.90;;
69822;SDS011;57119;52.516;13.508;2023-10-19T01:36:21;20.92;;;10.88;;
69822;SDS011;57119;52.516;13.508;2023-10-19T01:38:47;20.33;;;10.05;;
69822;SDS011;57119;52.516;13.508;2023-10-19T01:41:13;21.15;;;10.35;;
69822;SDS011;57119;52.516;13.508;2023-10-19T01:43:43;21.30;;;10.77;;
69822;SDS011;57119;52.516;13.508;2023-10-19T01:46:10;22.27;;;11.25;;
69822;SDS011;57119;52.516;13.508;2023-10-19T01:48:40;24.70;;;10.48;;
69822;SDS011;57119;52.516;13.508;2023-10-19T01:51:07;21.02;;;10.18;;
69822;SDS011;57119;52.516;13.508;2023-10-19T01:53:38;21.98;;;10.70;;
69822;SDS011;57119;52.516;13.508;2023-10-19T01:56:05;23.63;;;10.47;;
69822;SDS011;57119;52.516;13.508;2023-10-19T01:58:34;20.80;;;10.85;;
69822;SDS011;57119;52.516;13.508;2023-10-19T02:01:03;23.23;;;10.68;;
69822;SDS011;57119;52.516;13.508;2023-10-19T02:03:52;20.85;;;10.45;;
69822;SDS011;57119;52.516;13.508;2023-10-19T02:06:22;22.75;;;11.18;;
69822;SDS011;57119;52.516;13.508;2023-10-19T02:08:54;22.93;;;11.00;;
69822;SDS011;57119;52.516;13.508;2023-10-19T02:11:25;21.65;;;10.95;;
69822;SDS011;57119;52.516;13.508;2023-10-19T02:13:52;19.80;;;10.05;;
69822;SDS011;57119;52.516;13.508;2023-10-19T02:16:24;20.90;;;10.63;;
69822;SDS011;57119;52.516;13.508;2023-10-19T02:18:51;26.90;;;10.95;;
69822;SDS011;57119;52.516;13.508;2023-10-19T02:21:17;22.43;;;11.00;;
69822;SDS011;57119;52.516;13.508;2023-10-19T02:23:54;20.50;;;10.20;;
69822;SDS011;57119;52.516;13.508;2023-10-19T02:26:20;20.58;;;9.82;;
69822;SDS011;57119;52.516;13.508;2023-10-19T02:28:47;26.17;;;12.23;;
69822;SDS011;57119;52.516;13.508;2023-10-19T02:31:15;22.83;;;10.82;;
69822;SDS011;57119;52.516;13.508;2023-10-19T02:33:45;23.83;;;11.35;;
69822;SDS011;57119;52.516;13.508;2023-10-19T02:36:13;24.02;;;11.65;;
69822;SDS011;57119;52.516;13.508;2023-10-19T02:38:41;20.93;;;10.30;;
69822;SDS011;57119;52.516;13.508;2023-10-19T02:41:09;24.73;;;11.18;;
69822;SDS011;57119;52.516;13.508;2023-10-19T02:43:35;27.30;;;11.32;;
69822;SDS011;57119;52.516;13.508;2023-10-19T02:46:01;23.33;;;11.13;;
69822;SDS011;57119;52.516;13.508;2023-10-19T02:48:28;21.83;;;11.27;;
69822;SDS011;57119;52.516;13.508;2023-10-19T02:50:54;22.20;;;10.52;;
69822;SDS011;57119;52.516;13.508;2023-10-19T02:53:19;24.10;;;11.97;;
69822;SDS011;57119;52.516;13.508;2023-10-19T02:55:45;20.03;;;10.27;;
69822;SDS011;57119;52.516;13.508;2023-10-19T02:58:10;21.30;;;10.80;;
69822;SDS011;57119;52.516;13.508;2023-10-19T03:00:39;24.05;;;11.07;;
69822;SDS011;57119;52.516;13.508;2023-10-19T03:03:05;21.35;;;10.43;;
69822;SDS011;57119;52.516;13.508;2023-10-19T03:05:31;22.38;;;10.95;;
69822;SDS011;57119;52.516;13.508;2023-10-19T03:07:59;21.37;;;11.30;;
69822;SDS011;57119;52.516;13.508;2023-10-19T03:10:25;25.25;;;12.10;;
69822;SDS011;57119;52.516;13.508;2023-10-19T03:13:07;21.60;;;10.55;;
69822;SDS011;57119;52.516;13.508;2023-10-19T03:15:33;23.15;;;10.93;;
69822;SDS011;57119;52.516;13.508;2023-10-19T03:17:58;24.47;;;10.60;;
69822;SDS011;57119;52.516;13.508;2023-10-19T03:20:26;22.90;;;10.75;;
69822;SDS011;57119;52.516;13.508;2023-10-19T03:22:52;22.27;;;11.30;;
69822;SDS011;57119;52.516;13.508;2023-10-19T03:25:18;21.63;;;11.10;;
69822;SDS011;57119;52.516;13.508;2023-10-19T03:28:02;24.60;;;11.50;;
69822;SDS011;57119;52.516;13.508;2023-10-19T03:30:36;21.37;;;10.30;;
69822;SDS011;57119;52.516;13.508;2023-10-19T03:33:04;23.77;;;11.15;;
69822;SDS011;57119;52.516;13.508;2023-10-19T03:35:30;19.77;;;10.77;;
69822;SDS011;57119;52.516;13.508;2023-10-19T03:37:55;25.17;;;11.20;;
69822;SDS011;57119;52.516;13.508;2023-10-19T03:40:25;24.55;;;11.70;;
69822;SDS011;57119;52.516;13.508;2023-10-19T03:42:54;22.65;;;10.77;;
69822;SDS011;57119;52.516;13.508;2023-10-19T03:45:20;22.80;;;11.33;;
69822;SDS011;57119;52.516;13.508;2023-10-19T03:47:48;23.75;;;11.48;;
69822;SDS011;57119;52.516;13.508;2023-10-19T03:50:15;24.75;;;11.65;;
69822;SDS011;57119;52.516;13.508;2023-10-19T03:52:45;21.93;;;10.80;;
69822;SDS011;57119;52.516;13.508;2023-10-19T03:55:10;22.70;;;11.63;;
69822;SDS011;57119;52.516;13.508;2023-10-19T03:57:36;23.80;;;11.90;;
69822;SDS011;57119;52.516;13.508;2023-10-19T04:00:06;26.45;;;11.60;;
69822;SDS011;57119;52.516;13.508;2023-10-19T04:02:40;23.90;;;10.67;;
69822;SDS011;57119;52.516;13.508;2023-10-19T04:05:07;25.42;;;11.05;;
69822;SDS011;57119;52.516;13.508;2023-10-19T04:07:35;22.05;;;10.98;;
69822;SDS011;57119;52.516;13.508;2023-10-19T04:10:00;24.87;;;11.57;;
69822;SDS011;57119;52.516;13.508;2023-10-19T04:12:32;25.02;;;11.65;;
69822;SDS011;57119;52.516;13.508;2023-10-19T04:15:00;23.85;;;11.75;;
69822;SDS011;57119;52.516;13.508;2023-10-19T04:17:35;24.05;;;11.85;;
69822;SDS011;57119;52.516;13.508;2023-10-19T04:20:01;26.63;;;11.97;;
69822;SDS011;57119;52.516;13.508;2023-10-19T04:22:38;27.17;;;10.90;;
69822;SDS011;57119;52.516;13.508;2023-10-19T04:25:04;23.38;;;11.35;;
69822;SDS011;57119;52.516;13.508;2023-10-19T04:27:31;23.08;;;11.73;;
69822;SDS011;57119;52.516;13.508;2023-10-19T04:30:00;25.50;;;11.50;;
69822;SDS011;57119;52.516;13.508;2023-10-19T04:32:26;25.90;;;12.05;;
69822;SDS011;57119;52.516;13.508;2023-10-19T04:34:54;23.73;;;11.73;;
69822;SDS011;57119;52.516;13.508;2023-10-19T04:37:20;23.13;;;10.90;;
69822;SDS011;57119;52.516;13.508;2023-10-19T04:39:48;24.02;;;11.93;;
69822;SDS011;57119;52.516;13.508;2023-10-19T04:42:14;22.47;;;12.10;;
69822;SDS011;57119;52.516;13.508;2023-10-19T04:44:40;22.27;;;11.88;;
69822;SDS011;57119;52.516;13.508;2023-10-19T04:47:05;26.13;;;14.00;;
69822;SDS011;57119;52.516;13.508;2023-10-19T04:49:30;24.27;;;12.03;;
69822;SDS011;57119;52.516;13.508;2023-10-19T04:51:56;27.03;;;12.00;;
69822;SDS011;57119;52.516;13.508;2023-10-19T04:54:21;24.03;;;12.33;;
69822;SDS011;57119;52.516;13.508;2023-10-19T04:56:47;27.40;;;12.97;;
69822;SDS011;57119;52.516;13.508;2023-10-19T04:59:13;28.27;;;13.95;;
69822;SDS011;57119;52.516;13.508;2023-10-19T05:01:38;27.97;;;12.53;;
69822;SDS011;57119;52.516;13.508;2023-10-19T05:04:05;26.73;;;12.63;;
69822;SDS011;57119;52.516;13.508;2023-10-19T05:06:31;25.73;;;12.63;;
69822;SDS011;57119;52.516;13.508;2023-10-19T05:08:56;24.63;;;12.40;;
69822;SDS011;57119;52.516;13.508;2023-10-19T05:11:22;29.77;;;13.93;;
69822;SDS011;57119;52.516;13.508;2023-10-19T05:13:47;27.50;;;13.50;;
69822;SDS011;57119;52.516;13.508;2023-10-19T05:16:13;26.70;;;12.40;;
69822;SDS011;57119;52.516;13.508;2023-10-19T05:18:38;23.57;;;12.13;;
69822;SDS011;57119;52.516;13.508;2023-10-19T05:21:03;26.40;;;12.98;;
69822;SDS011;57119;52.516;13.508;2023-10-19T05:23:30;27.67;;;12.93;;
69822;SDS011;57119;52.516;13.508;2023-10-19T05:26:02;24.67;;;12.02;;
69822;SDS011;57119;52.516;13.508;2023-10-19T05:28:32;25.33;;;12.13;;
69822;SDS011;57119;52.516;13.508;2023-10-19T05:30:57;26.83;;;13.25;;
69822;SDS011;57119;52.516;13.508;2023-10-19T05:33:24;27.58;;;13.35;;
69822;SDS011;57119;52.516;13.508;2023-10-19T05:35:51;25.08;;;12.65;;
69822;SDS011;57119;52.516;13.508;2023-10-19T05:38:17;31.23;;;14.07;;
69822;SDS011;57119;52.516;13.508;2023-10-19T05:40:44;26.30;;;13.38;;
69822;SDS011;57119;52.516;13.508;2023-10-19T05:43:10;28.42;;;13.48;;
69822;SDS011;57119;52.516;13.508;2023-10-19T05:45:36;24.83;;;12.90;;
69822;SDS011;57119;52.516;13.508;2023-10-19T05:48:02;23.93;;;12.63;;
69822;SDS011;57119;52.516;13.508;2023-10-19T05:50:34;29.25;;;14.23;;
69822;SDS011;57119;52.516;13.508;2023-10-19T05:53:00;26.80;;;12.75;;
69822;SDS011;57119;52.516;13.508;2023-10-19T05:55:26;28.25;;;13.43;;
69822;SDS011;57119;52.516;13.508;2023-10-19T05:57:51;27.77;;;13.00;;
69822;SDS011;57119;52.516;13.508;2023-10-19T06:00:17;26.70;;;13.90;;
69822;SDS011;57119;52.516;13.508;2023-10-19T06:02:45;26.48;;;14.00;;
69822;SDS011;57119;52.516;13.508;2023-10-19T06:05:12;28.10;;;14.52;;
69822;SDS011;57119;52.516;13.508;2023-10-19T06:07:42;31.77;;;12.90;;
69822;SDS011;57119;52.516;13.508;2023-10-19T06:10:10;28.55;;;14.15;;
69822;SDS011;57119;52.516;13.508;2023-10-19T06:12:47;26.70;;;13.80;;
69822;SDS011;57119;52.516;13.508;2023-10-19T06:15:15;25.48;;;12.55;;
69822;SDS011;57119;52.516;13.508;2023-10-19T06:17:42;29.42;;;14.50;;
69822;SDS011;57119;52.516;13.508;2023-10-19T06:20:08;27.77;;;14.20;;
69822;SDS011;57119;52.516;13.508;2023-10-19T06:22:45;29.02;;;14.88;;
69822;SDS011;57119;52.516;13.508;2023-10-19T06:25:15;29.20;;;15.07;;
69822;SDS011;57119;52.516;13.508;2023-10-19T06:27:42;31.95;;;14.57;;
69822;SDS011;57119;52.516;13.508;2023-10-19T06:30:08;29.77;;;14.32;;
69822;SDS011;57119;52.516;13.508;2023-10-19T06:32:35;29.10;;;15.00;;
69822;SDS011;57119;52.516;13.508;2023-10-19T06:35:01;28.07;;;14.70;;
69822;SDS011;57119;52.516;13.508;2023-10-19T06:37:27;30.17;;;15.65;;
69822;SDS011;57119;52.516;13.508;2023-10-19T06:39:52;28.80;;;14.23;;
69822;SDS011;57119;52.516;13.508;2023-10-19T06:42:18;31.60;;;14.03;;
69822;SDS011;57119;52.516;13.508;2023-10-19T06:44:43;36.28;;;14.40;;
69822;SDS011;57119;52.516;13.508;2023-10-19T06:47:09;28.47;;;14.80;;
69822;SDS011;57119;52.516;13.508;2023-10-19T06:49:35;32.47;;;14.93;;
69822;SDS011;57119;52.516;13.508;2023-10-19T06:52:00;27.07;;;14.03;;
69822;SDS011;57119;52.516;13.508;2023-10-19T06:54:26;30.90;;;13.73;;
69822;SDS011;57119;52.516;13.508;2023-10-19T06:56:53;33.28;;;15.73;;
69822;SDS011;57119;52.516;13.508;2023-10-19T06:59:18;29.25;;;14.40;;
69822;SDS011;57119;52.516;13.508;2023-10-19T07:01:44;30.17;;;15.33;;
69822;SDS011;57119;52.516;13.508;2023-10-19T07:04:09;28.97;;;14.27;;
69822;SDS011;57119;52.516;13.508;2023-10-19T07:06:34;31.20;;;15.47;;
69822;SDS011;57119;52.516;13.508;2023-10-19T07:09:00;26.73;;;13.95;;
69822;SDS011;57119;52.516;13.508;2023-10-19T07:11:28;28.53;;;15.30;;
69822;SDS011;57119;52.516;13.508;2023-10-19T07:13:53;26.08;;;13.18;;
69822;SDS011;57119;52.516;13.508;2023-10-19T07:16:18;27.93;;;13.87;;
69822;SDS011;57119;52.516;13.508;2023-10-19T07:18:45;27.55;;;13.63;;
69822;SDS011;57119;52.516;13.508;2023-10-19T07:21:10;28.53;;;14.67;;
69822;SDS011;57119;52.516;13.508;2023-10-19T07:23:36;27.13;;;13.73;;
69822;SDS011;57119;52.516;13.508;2023-10-19T07:26:03;30.10;;;14.13;;
69822;SDS011;57119;52.516;13.508;2023-10-19T07:28:29;29.47;;;13.43;;
69822;SDS011;57119;52.516;13.508;2023-10-19T07:30:56;29.83;;;13.68;;
69822;SDS011;57119;52.516;13.508;2023-10-19T07:33:22;29.85;;;14.73;;
69822;SDS011;57119;52.516;13.508;2023-10-19T07:35:48;28.80;;;14.03;;
69822;SDS011;57119;52.516;13.508;2023-10-19T07:38:20;30.42;;;13.93;;
69822;SDS011;57119;52.516;13.508;2023-10-19T07:40:47;27.70;;;14.52;;
69822;SDS011;57119;52.516;13.508;2023-10-19T07:43:12;28.23;;;14.77;;
69822;SDS011;57119;52.516;13.508;2023-10-19T07:45:38;29.98;;;14.15;;
69822;SDS011;57119;52.516;13.508;2023-10-19T07:48:04;29.57;;;14.70;;
69822;SDS011;57119;52.516;13.508;2023-10-19T07:50:35;29.57;;;14.33;;
69822;SDS011;57119;52.516;13.508;2023-10-19T07:53:03;25.55;;;13.02;;
69822;SDS011;57119;52.516;13.508;2023-10-19T07:55:29;25.98;;;12.68;;
69822;SDS011;57119;52.516;13.508;2023-10-19T07:57:58;26.77;;;12.88;;
69822;SDS011;57119;52.516;13.508;2023-10-19T08:00:28;22.92;;;11.77;;
69822;SDS011;57119;52.516;13.508;2023-10-19T08:02:58;22.50;;;11.67;;
69822;SDS011;57119;52.516;13.508;2023-10-19T08:05:24;28.83;;;11.80;;
69822;SDS011;57119;52.516;13.508;2023-10-19T08:07:50;27.70;;;13.40;;
69822;SDS011;57119;52.516;13.508;2023-10-19T08:10:16;25.53;;;12.30;;
69822;SDS011;57119;52.516;13.508;2023-10-19T08:12:42;21.95;;;11.00;;
69822;SDS011;57119;52.516;13.508;2023-10-19T08:15:09;23.88;;;11.90;;
69822;SDS011;57119;52.516;13.508;2023-10-19T08:17:36;25.70;;;12.82;;
69822;SDS011;57119;52.516;13.508;2023-10-19T08:20:04;25.52;;;12.85;;
69822;SDS011;57119;52.516;13.508;2023-10-19T08:22:34;24.83;;;12.63;;
69822;SDS011;57119;52.516;13.508;2023-10-19T08:25:02;25.90;;;13.07;;
69822;SDS011;57119;52.516;13.508;2023-10-19T08:27:37;25.85;;;11.63;;
69822;SDS011;57119;52.516;13.508;2023-10-19T08:30:09;24.85;;;12.18;;
69822;SDS011;57119;52.516;13.508;2023-10-19T08:32:35;24.10;;;11.88;;
69822;SDS011;57119;52.516;13.508;2023-10-19T08:35:01;25.73;;;12.93;;
69822;SDS011;57119;52.516;13.508;2023-10-19T08:37:27;26.10;;;13.43;;
69822;SDS011;57119;52.516;13.508;2023-10-19T08:39:53;22.77;;;13.20;;
69822;SDS011;57119;52.516;13.508;2023-10-19T08:42:19;24.13;;;12.23;;
69822;SDS011;57119;52.516;13.508;2023-10-19T08:44:45;21.10;;;11.80;;
69822;SDS011;57119;52.516;13.508;2023-10-19T08:47:10;25.48;;;12.38;;
69822;SDS011;57119;52.516;13.508;2023-10-19T08:49:37;24.27;;;12.98;;
69822;SDS011;57119;52.516;13.508;2023-10-19T08:52:02;24.23;;;12.20;;
69822;SDS011;57119;52.516;13.508;2023-10-19T08:54:30;22.55;;;11.60;;
69822;SDS011;57119;52.516;13.508;2023-10-19T08:56:55;25.93;;;12.90;;
69822;SDS011;57119;52.516;13.508;2023-10-19T08:59:21;25.13;;;12.77;;
69822;SDS011;57119;52.516;13.508;2023-10-19T09:01:46;24.37;;;12.83;;
69822;SDS011;57119;52.516;13.508;2023-10-19T09:04:12;24.57;;;12.03;;
69822;SDS011;57119;52.516;13.508;2023-10-19T09:06:39;37.47;;;18.77;;
69822;SDS011;57119;52.516;13.508;2023-10-19T09:09:08;24.75;;;12.40;;
69822;SDS011;57119;52.516;13.508;2023-10-19T09:11:34;21.53;;;11.77;;
69822;SDS011;57119;52.516;13.508;2023-10-19T09:14:00;24.17;;;11.60;;
69822;SDS011;57119;52.516;13.508;2023-10-19T09:16:26;24.33;;;12.23;;
69822;SDS011;57119;52.516;13.508;2023-10-19T09:18:51;25.67;;;12.60;;
69822;SDS011;57119;52.516;13.508;2023-10-19T09:21:18;25.27;;;11.93;;
69822;SDS011;57119;52.516;13.508;2023-10-19T09:23:53;24.83;;;12.30;;
69822;SDS011;57119;52.516;13.508;2023-10-19T09:26:21;28.10;;;12.75;;
69822;SDS011;57119;52.516;13.508;2023-10-19T09:28:50;22.90;;;12.00;;
69822;SDS011;57119;52.516;13.508;2023-10-19T09:31:19;23.33;;;11.85;;
69822;SDS011;57119;52.516;13.508;2023-10-19T09:33:46;24.20;;;12.13;;
69822;SDS011;57119;52.516;13.508;2023-10-19T09:36:14;24.10;;;12.53;;
69822;SDS011;57119;52.516;13.508;2023-10-19T09:41:08;22.45;;;11.82;;
69822;SDS011;57119;52.516;13.508;2023-10-19T09:43:37;25.40;;;12.68;;
69822;SDS011;57119;52.516;13.508;2023-10-19T09:46:07;24.47;;;11.43;;
69822;SDS011;57119;52.516;13.508;2023-10-19T09:48:42;21.17;;;11.55;;
69822;SDS011;57119;52.516;13.508;2023-10-19T09:51:11;24.70;;;12.38;;
69822;SDS011;57119;52.516;13.508;2023-10-19T09:53:38;25.63;;;12.40;;
69822;SDS011;57119;52.516;13.508;2023-10-19T09:56:08;20.80;;;11.95;;
69822;SDS011;57119;52.516;13.508;2023-10-19T09:58:41;24.17;;;12.20;;
69822;SDS011;57119;52.516;13.508;2023-10-19T10:01:11;25.30;;;12.77;;
69822;SDS011;57119;52.516;13.508;2023-10-19T10:03:41;21.67;;;12.30;;
69822;SDS011;57119;52.516;13.508;2023-10-19T10:06:07;23.92;;;12.38;;
69822;SDS011;57119;52.516;13.508;2023-10-19T10:08:34;26.53;;;13.23;;
69822;SDS011;57119;52.516;13.508;2023-10-19T10:11:23;26.52;;;12.85;;
69822;SDS011;57119;52.516;13.508;2023-10-19T10:13:51;24.73;;;12.13;;
69822;SDS011;57119;52.516;13.508;2023-10-19T10:16:18;28.23;;;13.20;;
69822;SDS011;57119;52.516;13.508;2023-10-19T10:18:47;50.38;;;26.42;;
69822;SDS011;57119;52.516;13.508;2023-10-19T10:21:22;27.70;;;12.67;;
69822;SDS011;57119;52.516;13.508;2023-10-19T10:23:52;22.10;;;12.05;;
69822;SDS011;57119;52.516;13.508;2023-10-19T10:26:20;27.40;;;13.32;;
69822;SDS011;57119;52.516;13.508;2023-10-19T10:31:43;27.13;;;12.85;;
69822;SDS011;57119;52.516;13.508;2023-10-19T10:34:11;22.90;;;12.33;;
69822;SDS011;57119;52.516;13.508;2023-10-19T10:36:57;23.40;;;12.45;;
69822;SDS011;57119;52.516;13.508;2023-10-19T10:39:25;22.35;;;12.82;;
69822;SDS011;57119;52.516;13.508;2023-10-19T10:41:57;22.63;;;12.25;;
69822;SDS011;57119;52.516;13.508;2023-10-19T10:44:35;23.95;;;12.45;;
69822;SDS011;57119;52.516;13.508;2023-10-19T10:47:05;29.53;;;14.67;;
69822;SDS011;57119;52.516;13.508;2023-10-19T10:49:35;26.83;;;13.82;;
69822;SDS011;57119;52.516;13.508;2023-10-19T10:52:22;26.05;;;13.57;;
69822;SDS011;57119;52.516;13.508;2023-10-19T10:54:51;25.40;;;13.00;;
69822;SDS011;57119;52.516;13.508;2023-10-19T10:57:18;27.95;;;14.23;;
69822;SDS011;57119;52.516;13.508;2023-10-19T10:59:45;25.07;;;13.70;;
69822;SDS011;57119;52.516;13.508;2023-10-19T11:02:17;26.45;;;13.05;;
69822;SDS011;57119;52.516;13.508;2023-10-19T11:04:43;26.38;;;13.85;;
69822;SDS011;57119;52.516;13.508;2023-10-19T11:07:18;24.67;;;12.73;;
69822;SDS011;57119;52.516;13.508;2023-10-19T11:09:45;28.80;;;14.32;;
69822;SDS011;57119;52.516;13.508;2023-10-19T11:12:11;27.15;;;14.80;;
69822;SDS011;57119;52.516;13.508;2023-10-19T11:14:38;26.45;;;13.60;;
69822;SDS011;57119;52.516;13.508;2023-10-19T11:17:19;25.05;;;13.93;;
69822;SDS011;57119;52.516;13.508;2023-10-19T11:19:48;24.83;;;12.97;;
69822;SDS011;57119;52.516;13.508;2023-10-19T11:22:14;26.40;;;13.20;;
69822;SDS011;57119;52.516;13.508;2023-10-19T11:24:40;27.03;;;14.63;;
69822;SDS011;57119;52.516;13.508;2023-10-19T11:27:05;31.03;;;14.10;;
69822;SDS011;57119;52.516;13.508;2023-10-19T11:29:32;31.27;;;14.63;;
69822;SDS011;57119;52.516;13.508;2023-10-19T11:31:59;29.30;;;15.75;;
69822;SDS011;57119;52.516;13.508;2023-10-19T11:34:25;31.80;;;13.75;;
69822;SDS011;57119;52.516;13.508;2023-10-19T11:36:56;27.33;;;14.77;;
69822;SDS011;57119;52.516;13.508;2023-10-19T11:39:24;31.23;;;14.95;;
69822;SDS011;57119;52.516;13.508;2023-10-19T11:41:50;29.70;;;15.87;;
69822;SDS011;57119;52.516;13.508;2023-10-19T11:44:15;31.57;;;16.17;;
69822;SDS011;57119;52.516;13.508;2023-10-19T11:46:40;26.55;;;14.52;;
69822;SDS011;57119;52.516;13.508;2023-10-19T11:49:06;28.47;;;14.80;;
69822;SDS011;57119;52.516;13.508;2023-10-19T11:51:31;29.00;;;16.13;;
69822;SDS011;57119;52.516;13.508;2023-10-19T11:53:57;31.33;;;15.13;;
69822;SDS011;57119;52.516;13.508;2023-10-19T11:56:22;30.40;;;15.53;;
69822;SDS011;57119;52.516;13.508;2023-10-19T11:58:50;30.75;;;16.17;;
69822;SDS011;57119;52.516;13.508;2023-10-19T12:01:15;31.40;;;16.63;;
69822;SDS011;57119;52.516;13.508;2023-10-19T12:03:44;34.93;;;19.03;;
69822;SDS011;57119;52.516;13.508;2023-10-19T12:06:13;33.25;;;15.93;;
69822;SDS011;57119;52.516;13.508;2023-10-19T12:08:43;28.80;;;15.77;;
69822;SDS011;57119;52.516;13.508;2023-10-19T12:11:09;31.27;;;16.38;;
69822;SDS011;57119;52.516;13.508;2023-10-19T12:13:40;31.73;;;17.93;;
69822;SDS011;57119;52.516;13.508;2023-10-19T12:16:08;31.35;;;16.77;;
69822;SDS011;57119;52.516;13.508;2023-10-19T12:18:36;30.13;;;15.93;;
69822;SDS011;57119;52.516;13.508;2023-10-19T12:21:01;31.57;;;15.67;;
69822;SDS011;57119;52.516;13.508;2023-10-19T12:23:27;27.10;;;15.15;;
69822;SDS011;57119;52.516;13.508;2023-10-19T12:25:54;27.50;;;16.03;;
69822;SDS011;57119;52.516;13.508;2023-10-19T12:28:20;31.30;;;16.02;;
69822;SDS011;57119;52.516;13.508;2023-10-19T12:30:45;30.10;;;15.77;;
69822;SDS011;57119;52.516;13.508;2023-10-19T12:33:12;27.80;;;15.23;;
69822;SDS011;57119;52.516;13.508;2023-10-19T12:35:38;29.83;;;14.90;;
69822;SDS011;57119;52.516;13.508;2023-10-19T12:38:24;30.42;;;15.25;;
69822;SDS011;57119;52.516;13.508;2023-10-19T12:40:50;26.27;;;14.25;;
69822;SDS011;57119;52.516;13.508;2023-10-19T12:43:17;26.45;;;14.95;;
69822;SDS011;57119;52.516;13.508;2023-10-19T12:45:55;26.63;;;14.20;;
69822;SDS011;57119;52.516;13.508;2023-10-19T12:48:22;26.53;;;15.83;;
69822;SDS011;57119;52.516;13.508;2023-10-19T12:50:50;30.05;;;15.77;;
69822;SDS011;57119;52.516;13.508;2023-10-19T12:53:16;28.60;;;15.57;;
69822;SDS011;57119;52.516;13.508;2023-10-19T12:55:41;28.97;;;14.73;;
69822;SDS011;57119;52.516;13.508;2023-10-19T12:58:08;29.08;;;14.90;;
69822;SDS011;57119;52.516;13.508;2023-10-19T13:00:37;29.58;;;14.80;;
69822;SDS011;57119;52.516;13.508;2023-10-19T13:03:06;31.48;;;16.23;;
69822;SDS011;57119;52.516;13.508;2023-10-19T13:05:33;30.08;;;16.00;;
69822;SDS011;57119;52.516;13.508;2023-10-19T13:07:59;34.93;;;16.23;;
69822;SDS011;57119;52.516;13.508;2023-10-19T13:10:28;29.98;;;15.45;;
69822;SDS011;57119;52.516;13.508;2023-10-19T13:13:05;30.30;;;15.15;;
69822;SDS011;57119;52.516;13.508;2023-10-19T13:15:32;33.60;;;16.95;;
69822;SDS011;57119;52.516;13.508;2023-10-19T13:18:00;40.33;;;17.00;;
69822;SDS011;57119;52.516;13.508;2023-10-19T13:20:29;29.33;;;16.45;;
69822;SDS011;57119;52.516;13.508;2023-10-19T13:23:01;34.45;;;15.63;;
69822;SDS011;57119;52.516;13.508;2023-10-19T13:25:28;30.73;;;15.98;;
69822;SDS011;57119;52.516;13.508;2023-10-19T13:28:10;32.42;;;16.25;;
69822;SDS011;57119;52.516;13.508;2023-10-19T13:30:55;29.30;;;15.30;;
69822;SDS011;57119;52.516;13.508;2023-10-19T13:33:21;32.10;;;16.63;;
69822;SDS011;57119;52.516;13.508;2023-10-19T13:35:49;32.35;;;16.27;;
69822;SDS011;57119;52.516;13.508;2023-10-19T13:38:15;31.95;;;16.52;;
69822;SDS011;57119;52.516;13.508;2023-10-19T13:40:42;34.53;;;16.93;;
69822;SDS011;57119;52.516;13.508;2023-10-19T13:43:08;32.42;;;15.82;;
69822;SDS011;57119;52.516;13.508;2023-10-19T13:45:38;31.55;;;16.70;;
69822;SDS011;57119;52.516;13.508;2023-10-19T13:48:04;29.33;;;15.33;;
69822;SDS011;57119;52.516;13.508;2023-10-19T13:50:31;32.20;;;17.08;;
69822;SDS011;57119;52.516;13.508;2023-10-19T13:52:57;32.25;;;16.90;;
69822;SDS011;57119;52.516;13.508;2023-10-19T13:55:25;49.00;;;25.67;;
69822;SDS011;57119;52.516;13.508;2023-10-19T13:57:54;32.20;;;16.80;;
69822;SDS011;57119;52.516;13.508;2023-10-19T14:00:20;32.53;;;16.07;;
69822;SDS011;57119;52.516;13.508;2023-10-19T14:03:10;33.05;;;16.75;;
69822;SDS011;57119;52.516;13.508;2023-10-19T14:05:41;35.78;;;17.70;;
69822;SDS011;57119;52.516;13.508;2023-10-19T14:08:13;34.28;;;17.40;;
69822;SDS011;57119;52.516;13.508;2023-10-19T14:10:39;34.13;;;16.67;;
69822;SDS011;57119;52.516;13.508;2023-10-19T14:13:08;33.77;;;17.77;;
69822;SDS011;57119;52.516;13.508;2023-10-19T14:15:36;34.83;;;16.42;;
69822;SDS011;57119;52.516;13.508;2023-10-19T14:18:02;32.05;;;17.15;;
69822;SDS011;57119;52.516;13.508;2023-10-19T14:20:29;34.57;;;17.57;;
69822;SDS011;57119;52.516;13.508;2023-10-19T14:22:55;38.30;;;17.60;;
69822;SDS011;57119;52.516;13.508;2023-10-19T14:25:21;34.67;;;17.42;;